Time;durP1;ratioP1;P1;durP2;ratioP2;P2;SDS_P1;SDS_P2;PMS_P1;PMS_P2;Temp;Humidity;BMP_temperature;BMP_pressure;BME280_temperature;BME280_humidity;BME280_pressure;Samples;Min_cycle;Max_cycle;Signal;HPM_P1;HPM_P2
2021/01/06 00:01:10;;;;;;;45.83;20.45;;;5.10;99.90;;;;;;5039341;28;20037;-81
2021/01/06 00:03:38;;;;;;;40.75;21.00;;;5.10;99.90;;;;;;5047871;28;20465;-80
2021/01/06 00:06:09;;;;;;;37.65;19.70;;;5.20;99.90;;;;;;5045052;28;20083;-80
2021/01/06 00:08:37;;;;;;;44.15;21.73;;;5.10;99.90;;;;;;5047506;28;20013;-80
2021/01/06 00:11:09;;;;;;;39.45;20.50;;;5.20;99.90;;;;;;5046173;28;21002;-83
2021/01/06 00:13:35;;;;;;;40.95;20.55;;;5.10;99.90;;;;;;5045206;28;20036;-80
2021/01/06 00:16:01;;;;;;;45.60;21.00;;;5.10;99.90;;;;;;5044663;28;20028;-80
2021/01/06 00:18:27;;;;;;;36.63;19.08;;;5.20;99.90;;;;;;5043765;28;20035;-80
2021/01/06 00:20:55;;;;;;;38.65;18.63;;;5.20;99.90;;;;;;5046176;28;20465;-80
2021/01/06 00:23:26;;;;;;;37.30;19.45;;;5.20;99.90;;;;;;5050413;28;20017;-80
2021/01/06 00:25:52;;;;;;;40.45;19.88;;;5.20;99.90;;;;;;5048536;28;20047;-80
2021/01/06 00:28:20;;;;;;;41.80;20.65;;;5.20;99.90;;;;;;5050736;28;20025;-80
2021/01/06 00:30:48;;;;;;;39.40;19.30;;;5.20;99.90;;;;;;5053403;28;20024;-80
2021/01/06 00:33:23;;;;;;;38.22;19.13;;;5.10;99.90;;;;;;5053100;28;20071;-81
2021/01/06 00:35:54;;;;;;;36.55;18.95;;;5.20;99.90;;;;;;5052257;28;20040;-80
2021/01/06 00:38:24;;;;;;;36.50;18.15;;;5.10;99.90;;;;;;5053348;28;20025;-80
2021/01/06 00:40:51;;;;;;;40.75;19.23;;;5.10;99.90;;;;;;5048186;28;20486;-80
2021/01/06 00:43:19;;;;;;;37.05;17.95;;;5.20;99.90;;;;;;5048587;28;20025;-80
2021/01/06 00:45:45;;;;;;;37.53;19.00;;;5.20;99.90;;;;;;5050328;28;20029;-80
2021/01/06 00:48:14;;;;;;;39.53;18.63;;;5.30;99.90;;;;;;5058139;28;20029;-80
2021/01/06 00:50:46;;;;;;;39.50;18.33;;;5.30;99.90;;;;;;5048687;28;20424;-80
2021/01/06 00:53:18;;;;;;;38.77;18.67;;;5.20;99.90;;;;;;5052626;28;20107;-81
2021/01/06 00:55:46;;;;;;;35.40;18.45;;;5.20;99.90;;;;;;5041967;28;20029;-80
2021/01/06 00:58:12;;;;;;;42.55;20.17;;;5.20;99.90;;;;;;5041735;28;20108;-80
2021/01/06 01:00:41;;;;;;;43.22;19.88;;;5.20;99.90;;;;;;5042615;28;20048;-80
2021/01/06 01:03:07;;;;;;;41.05;19.95;;;5.20;99.90;;;;;;5052695;28;20423;-80
2021/01/06 01:05:34;;;;;;;40.17;20.23;;;5.20;99.90;;;;;;5051873;28;20025;-80
2021/01/06 01:08:01;;;;;;;45.75;20.42;;;5.20;99.90;;;;;;5054373;28;20044;-80
2021/01/06 01:10:39;;;;;;;48.83;21.23;;;5.20;99.90;;;;;;5055401;28;20363;-80
2021/01/06 01:13:10;;;;;;;45.13;20.27;;;5.20;99.90;;;;;;5043250;28;20413;-80
2021/01/06 01:15:38;;;;;;;55.25;22.25;;;5.20;99.90;;;;;;5051800;28;20465;-80
2021/01/06 01:18:06;;;;;;;43.17;19.92;;;5.20;99.90;;;;;;5059997;28;20104;-80
2021/01/06 01:20:33;;;;;;;49.75;21.65;;;5.20;99.90;;;;;;5053499;28;20021;-80
2021/01/06 01:22:59;;;;;;;51.17;22.27;;;5.20;99.90;;;;;;5050795;28;20055;-80
2021/01/06 01:25:27;;;;;;;48.85;21.70;;;5.20;99.90;;;;;;5050134;28;20029;-80
2021/01/06 01:27:53;;;;;;;52.85;23.95;;;5.20;99.90;;;;;;5079718;28;20048;-80
2021/01/06 01:30:26;;;;;;;48.92;21.60;;;5.20;99.90;;;;;;5052336;28;20028;-80
2021/01/06 01:32:53;;;;;;;50.15;21.80;;;5.20;99.90;;;;;;5052226;28;20058;-80
2021/01/06 01:35:23;;;;;;;49.28;20.70;;;5.30;99.90;;;;;;5052039;28;20075;-80
2021/01/06 01:37:49;;;;;;;48.17;20.17;;;5.20;99.90;;;;;;5042686;28;20021;-80
2021/01/06 01:40:26;;;;;;;45.50;20.40;;;5.20;99.90;;;;;;5051138;28;20031;-80
2021/01/06 01:42:53;;;;;;;53.13;22.58;;;5.30;99.90;;;;;;5053803;28;20059;-81
2021/01/06 01:45:34;;;;;;;48.30;22.13;;;5.20;99.90;;;;;;5057144;28;20033;-82
2021/01/06 01:48:03;;;;;;;47.50;22.60;;;5.30;99.90;;;;;;5058955;28;20047;-80
2021/01/06 01:50:30;;;;;;;51.05;22.80;;;5.30;99.90;;;;;;5055722;28;20029;-80
2021/01/06 01:53:07;;;;;;;48.47;22.63;;;5.30;99.90;;;;;;5055915;28;20516;-81
2021/01/06 01:55:34;;;;;;;53.85;22.20;;;5.30;99.90;;;;;;5039555;28;20036;-81
2021/01/06 01:58:09;;;;;;;49.92;21.73;;;5.30;99.90;;;;;;5051580;28;20025;-81
2021/01/06 02:00:40;;;;;;;38.47;19.02;;;5.30;99.90;;;;;;5044987;28;20373;-80
2021/01/06 02:03:22;;;;;;;44.92;19.83;;;5.30;99.90;;;;;;5045161;28;20478;-81
2021/01/06 02:05:55;;;;;;;44.97;20.73;;;5.30;99.90;;;;;;5046160;28;20032;-80
2021/01/06 02:08:31;;;;;;;46.92;19.42;;;5.30;99.90;;;;;;5056509;28;20029;-81
2021/01/06 02:11:23;;;;;;;48.58;22.45;;;5.30;99.90;;;;;;5046057;28;20078;-80
2021/01/06 02:14:14;;;;;;;47.10;20.40;;;5.30;99.90;;;;;;5057105;28;20027;-80
2021/01/06 02:16:46;;;;;;;40.05;19.00;;;5.30;99.90;;;;;;5060379;28;20081;-80
2021/01/06 02:19:13;;;;;;;44.58;20.52;;;5.30;99.90;;;;;;5044961;28;20064;-80
2021/01/06 02:21:39;;;;;;;44.80;21.02;;;5.30;99.90;;;;;;5038039;28;20021;-80
2021/01/06 02:24:06;;;;;;;46.97;21.35;;;5.30;99.90;;;;;;5053974;28;20101;-80
2021/01/06 02:26:33;;;;;;;42.67;20.05;;;5.30;99.90;;;;;;5046257;28;20029;-80
2021/01/06 02:29:04;;;;;;;48.22;21.58;;;5.30;99.90;;;;;;5050559;28;20025;-81
2021/01/06 02:31:32;;;;;;;46.40;20.75;;;5.30;99.90;;;;;;5035868;28;20104;-81
2021/01/06 02:33:58;;;;;;;51.35;21.63;;;5.30;99.90;;;;;;5044212;28;20013;-80
2021/01/06 02:36:27;;;;;;;48.25;21.73;;;5.30;99.90;;;;;;5049503;28;20389;-80
2021/01/06 02:38:58;;;;;;;51.50;22.50;;;5.30;99.90;;;;;;5055245;28;20389;-80
2021/01/06 02:41:24;;;;;;;52.03;23.77;;;5.30;99.90;;;;;;5052562;28;20032;-81
2021/01/06 02:43:50;;;;;;;51.30;23.42;;;5.30;99.90;;;;;;5039978;28;20030;-80
2021/01/06 02:46:20;;;;;;;51.83;24.30;;;5.30;99.90;;;;;;5052372;28;20497;-80
2021/01/06 02:48:48;;;;;;;51.47;23.42;;;5.30;99.90;;;;;;5058232;28;20535;-80
2021/01/06 02:51:33;;;;;;;50.35;24.02;;;5.40;99.90;;;;;;5085625;28;20417;-81
2021/01/06 02:54:05;;;;;;;59.25;25.13;;;5.40;99.90;;;;;;5042564;28;20032;-81
2021/01/06 02:56:33;;;;;;;56.22;24.42;;;5.40;99.90;;;;;;5051581;28;20409;-81
2021/01/06 02:59:03;;;;;;;54.28;24.58;;;5.40;99.90;;;;;;5055071;28;20408;-81
2021/01/06 03:01:33;;;;;;;56.72;25.33;;;5.40;99.90;;;;;;5049585;28;20461;-81
2021/01/06 03:04:06;;;;;;;56.05;24.73;;;5.40;99.90;;;;;;5047601;28;20021;-81
2021/01/06 03:06:56;;;;;;;58.45;24.67;;;5.40;99.90;;;;;;5051271;28;20044;-80
2021/01/06 03:09:31;;;;;;;61.53;26.20;;;5.40;99.90;;;;;;5049930;28;20044;-81
2021/01/06 03:12:01;;;;;;;56.42;25.95;;;5.30;99.90;;;;;;5050836;28;20017;-81
2021/01/06 03:14:31;;;;;;;61.75;25.77;;;5.40;99.90;;;;;;5037718;28;20063;-81
2021/01/06 03:16:59;;;;;;;62.75;26.00;;;5.40;99.90;;;;;;5049967;28;20021;-81
2021/01/06 03:19:28;;;;;;;67.88;26.77;;;5.40;99.90;;;;;;5038756;28;20053;-81
2021/01/06 03:22:03;;;;;;;63.47;24.83;;;5.40;99.90;;;;;;5048947;28;20021;-80
2021/01/06 03:24:36;;;;;;;67.93;26.38;;;5.40;99.90;;;;;;5053450;28;20025;-81
2021/01/06 03:27:02;;;;;;;55.65;25.05;;;5.40;99.90;;;;;;5042848;28;20663;-81
2021/01/06 03:29:32;;;;;;;60.35;26.05;;;5.40;99.90;;;;;;5054032;28;20033;-80
2021/01/06 03:32:04;;;;;;;57.28;25.58;;;5.30;99.90;;;;;;5047615;28;20025;-81
2021/01/06 03:34:43;;;;;;;62.17;25.85;;;5.40;99.90;;;;;;5047003;28;20029;-81
2021/01/06 03:37:17;;;;;;;59.17;24.98;;;5.40;99.90;;;;;;5053639;28;20025;-81
2021/01/06 03:40:16;;;;;;;56.92;25.15;;;5.40;99.90;;;;;;5043013;28;20099;-80
2021/01/06 03:42:43;;;;;;;52.88;23.00;;;5.40;99.90;;;;;;5035790;28;20504;-80
2021/01/06 03:45:15;;;;;;;47.58;23.10;;;5.30;99.90;;;;;;5034298;28;20075;-81
2021/01/06 03:47:46;;;;;;;49.97;23.77;;;5.20;99.90;;;;;;5052664;28;20037;-81
2021/01/06 03:50:28;;;;;;;49.45;23.70;;;5.20;99.90;;;;;;5041330;28;20287;-81
2021/01/06 03:53:03;;;;;;;56.38;23.63;;;5.30;99.90;;;;;;5044959;28;20380;-80
2021/01/06 03:55:48;;;;;;;46.45;20.63;;;5.30;99.90;;;;;;5049505;28;20021;-81
2021/01/06 03:58:43;;;;;;;50.95;23.02;;;5.20;99.90;;;;;;5047510;28;20026;-81
2021/01/06 04:01:23;;;;;;;54.30;24.63;;;5.20;99.90;;;;;;5046477;28;20037;-80
2021/01/06 04:04:22;;;;;;;54.15;23.15;;;5.30;99.90;;;;;;5049854;28;20017;-81
2021/01/06 04:06:53;;;;;;;56.03;23.35;;;5.30;99.90;;;;;;5044286;28;20033;-81
2021/01/06 04:09:35;;;;;;;57.08;24.80;;;5.30;99.90;;;;;;5053104;28;20025;-81
2021/01/06 04:12:13;;;;;;;53.97;23.98;;;5.30;99.90;;;;;;5044365;28;20178;-80
2021/01/06 04:14:40;;;;;;;54.78;23.75;;;5.20;99.90;;;;;;5049084;28;20083;-80
2021/01/06 04:17:20;;;;;;;51.97;22.77;;;5.20;99.90;;;;;;5049367;28;20028;-80
2021/01/06 04:19:54;;;;;;;48.45;21.75;;;5.10;99.90;;;;;;5038267;28;20021;-80
2021/01/06 04:22:41;;;;;;;46.38;21.25;;;5.00;99.90;;;;;;5039829;28;20009;-80
2021/01/06 04:25:23;;;;;;;52.17;22.13;;;5.00;99.90;;;;;;5047204;28;20029;-80
2021/01/06 04:27:59;;;;;;;51.92;21.63;;;5.10;99.90;;;;;;5052103;28;20485;-80
2021/01/06 04:30:39;;;;;;;51.63;21.60;;;5.20;99.90;;;;;;5053544;28;20104;-80
2021/01/06 04:33:16;;;;;;;52.20;22.08;;;5.20;99.90;;;;;;5051262;28;20033;-80
2021/01/06 04:35:49;;;;;;;50.15;21.92;;;5.10;99.90;;;;;;5051275;28;20422;-80
2021/01/06 04:38:26;;;;;;;46.38;20.60;;;5.10;99.90;;;;;;5053182;28;20479;-80
2021/01/06 04:41:01;;;;;;;47.97;20.90;;;5.10;99.90;;;;;;5050705;28;20477;-81
2021/01/06 04:44:05;;;;;;;46.20;21.02;;;5.10;99.90;;;;;;5051517;28;20433;-80
2021/01/06 04:47:08;;;;;;;46.17;20.23;;;5.10;99.90;;;;;;5048955;28;20029;-75
2021/01/06 04:49:52;;;;;;;44.05;20.50;;;5.10;99.90;;;;;;5044730;28;20025;-75
2021/01/06 04:52:36;;;;;;;43.60;20.73;;;5.10;99.90;;;;;;5048339;28;20030;-75
2021/01/06 04:55:26;;;;;;;46.20;20.00;;;5.10;99.90;;;;;;5051644;28;20033;-75
2021/01/06 04:58:19;;;;;;;49.20;20.38;;;5.20;99.90;;;;;;5041428;28;20018;-75
2021/01/06 05:01:04;;;;;;;47.65;20.45;;;5.20;99.90;;;;;;5049211;28;20035;-74
2021/01/06 05:03:40;;;;;;;44.53;19.55;;;5.20;99.90;;;;;;5048406;28;20018;-76
2021/01/06 05:06:23;;;;;;;42.70;21.13;;;5.20;99.90;;;;;;5051270;28;20032;-75
2021/01/06 05:08:52;;;;;;;47.28;20.55;;;5.10;99.90;;;;;;5056267;28;20025;-76
2021/01/06 05:11:29;;;;;;;45.58;20.13;;;5.20;99.90;;;;;;5047957;28;20141;-75
2021/01/06 05:14:08;;;;;;;45.85;19.92;;;5.20;99.90;;;;;;5050074;28;20024;-75
2021/01/06 05:16:44;;;;;;;48.33;21.83;;;5.00;99.90;;;;;;5052530;28;20107;-76
2021/01/06 05:19:26;;;;;;;40.75;19.85;;;5.10;99.90;;;;;;5066949;28;20025;-75
2021/01/06 05:21:53;;;;;;;41.60;20.02;;;5.20;99.90;;;;;;5053345;28;20025;-76
2021/01/06 05:24:30;;;;;;;45.67;21.73;;;5.20;99.90;;;;;;5052988;28;20025;-76
2021/01/06 05:27:12;;;;;;;45.83;20.50;;;5.10;99.90;;;;;;5052749;28;20167;-75
2021/01/06 05:29:43;;;;;;;43.67;20.10;;;5.00;99.90;;;;;;5048552;28;20083;-75
2021/01/06 05:32:39;;;;;;;45.83;20.30;;;5.00;99.90;;;;;;5048485;28;20060;-75
2021/01/06 05:35:13;;;;;;;44.90;19.60;;;5.10;99.90;;;;;;5048376;28;20037;-75
2021/01/06 05:37:39;;;;;;;49.33;20.40;;;5.20;99.90;;;;;;5050646;28;20496;-75
2021/01/06 05:40:15;;;;;;;48.03;20.55;;;5.10;99.90;;;;;;5046150;28;20033;-75
2021/01/06 05:42:52;;;;;;;44.22;21.30;;;5.10;99.90;;;;;;5052757;28;20025;-76
2021/01/06 05:45:22;;;;;;;51.35;21.63;;;5.10;99.90;;;;;;5052624;28;20040;-76
2021/01/06 05:47:52;;;;;;;46.60;20.48;;;5.00;99.90;;;;;;5044494;28;20029;-76
2021/01/06 05:50:57;;;;;;;51.03;20.77;;;5.00;99.90;;;;;;5050978;28;20056;-76
2021/01/06 05:53:46;;;;;;;53.05;22.73;;;5.00;99.90;;;;;;5048435;28;20120;-76
2021/01/06 05:56:42;;;;;;;47.03;21.02;;;5.00;99.90;;;;;;5057329;28;20021;-76
2021/01/06 05:59:20;;;;;;;50.25;20.42;;;4.90;99.90;;;;;;5062552;28;20417;-76
2021/01/06 06:02:16;;;;;;;48.50;22.02;;;4.90;99.90;;;;;;5047334;28;20028;-76
2021/01/06 06:05:30;;;;;;;50.80;22.85;;;4.80;99.90;;;;;;5046554;28;20021;-75
2021/01/06 06:07:56;;;;;;;52.40;22.38;;;4.80;99.90;;;;;;5059366;28;20029;-75
2021/01/06 06:10:40;;;;;;;49.28;22.38;;;4.80;99.90;;;;;;5055033;28;20029;-76
2021/01/06 06:13:24;;;;;;;48.40;22.50;;;4.90;99.90;;;;;;5049750;28;20044;-76
2021/01/06 06:16:31;;;;;;;51.92;23.33;;;5.00;99.90;;;;;;5054705;28;20374;-75
2021/01/06 06:19:38;;;;;;;48.58;23.08;;;4.90;99.90;;;;;;5040368;28;20041;-76
2021/01/06 06:22:24;;;;;;;47.80;23.08;;;5.00;99.90;;;;;;5078771;28;20551;-76
2021/01/06 06:25:02;;;;;;;46.65;22.58;;;5.10;99.90;;;;;;5049303;28;20029;-76
2021/01/06 06:28:06;;;;;;;48.95;22.30;;;5.00;99.90;;;;;;5054704;28;20083;-76
2021/01/06 06:30:39;;;;;;;51.63;21.60;;;5.00;99.90;;;;;;5048881;28;20083;-76
2021/01/06 06:33:34;;;;;;;46.38;22.48;;;5.00;99.90;;;;;;5053293;28;20540;-76
2021/01/06 06:36:02;;;;;;;49.00;22.00;;;5.00;99.90;;;;;;5043943;28;20084;-75
2021/01/06 06:38:39;;;;;;;45.85;22.75;;;5.00;99.90;;;;;;5047844;28;20056;-76
2021/01/06 06:41:23;;;;;;;42.30;21.33;;;5.10;99.90;;;;;;5048587;28;20032;-75
2021/01/06 06:44:20;;;;;;;53.85;24.27;;;5.00;99.90;;;;;;5053631;28;20070;-76
2021/01/06 06:46:45;;;;;;;46.13;22.65;;;4.90;99.90;;;;;;5052836;28;20021;-76
2021/01/06 06:49:11;;;;;;;48.42;22.17;;;4.90;99.90;;;;;;5047993;28;20029;-75
2021/01/06 06:51:45;;;;;;;46.58;22.95;;;5.00;99.90;;;;;;5047599;28;20032;-75
2021/01/06 06:54:35;;;;;;;46.65;23.80;;;5.10;99.90;;;;;;5050989;28;20359;-75
2021/01/06 06:57:07;;;;;;;44.50;22.52;;;5.10;99.90;;;;;;5047131;28;20028;-75
2021/01/06 07:00:08;;;;;;;47.10;22.83;;;5.20;99.90;;;;;;5049868;28;20085;-75
2021/01/06 07:02:47;;;;;;;45.45;21.98;;;5.20;99.90;;;;;;5063611;28;20430;-76
2021/01/06 07:05:34;;;;;;;46.95;22.20;;;5.20;99.90;;;;;;5051135;28;20017;-75
2021/01/06 07:08:04;;;;;;;46.00;22.50;;;5.20;99.90;;;;;;5054238;28;20116;-75
2021/01/06 07:10:45;;;;;;;43.33;22.77;;;5.20;99.90;;;;;;5053537;28;20024;-75
2021/01/06 07:13:22;;;;;;;42.45;21.48;;;5.20;99.90;;;;;;5053615;28;20033;-75
2021/01/06 07:15:51;;;;;;;42.70;22.05;;;5.20;99.90;;;;;;5049749;28;20492;-75
2021/01/06 07:18:26;;;;;;;40.65;22.17;;;5.20;99.90;;;;;;5053746;28;20031;-74
2021/01/06 07:21:10;;;;;;;39.95;21.45;;;5.20;99.90;;;;;;5044229;28;20116;-80
2021/01/06 07:23:49;;;;;;;42.83;21.30;;;5.20;99.90;;;;;;5055789;28;20036;-80
2021/01/06 07:26:23;;;;;;;41.72;22.98;;;5.20;99.90;;;;;;5048880;28;20100;-80
2021/01/06 07:28:58;;;;;;;46.50;22.73;;;5.20;99.90;;;;;;5061105;28;20211;-80
2021/01/06 07:31:28;;;;;;;47.65;22.88;;;5.20;99.90;;;;;;5052226;28;20091;-80
2021/01/06 07:33:57;;;;;;;43.58;22.85;;;5.20;99.90;;;;;;5049515;28;20554;-80
2021/01/06 07:36:27;;;;;;;47.75;22.05;;;5.20;99.90;;;;;;5051069;28;20020;-80
2021/01/06 07:38:55;;;;;;;46.30;22.60;;;5.20;99.90;;;;;;5047335;28;20029;-80
2021/01/06 07:41:22;;;;;;;41.33;21.88;;;5.30;99.90;;;;;;5054653;28;20351;-80
2021/01/06 07:44:03;;;;;;;40.22;21.83;;;5.30;99.90;;;;;;5051055;28;20492;-80
2021/01/06 07:46:58;;;;;;;43.70;21.17;;;5.30;99.90;;;;;;5051306;28;20059;-80
2021/01/06 07:49:38;;;;;;;42.35;20.80;;;5.20;99.90;;;;;;5043484;28;20064;-80
2021/01/06 07:52:41;;;;;;;42.78;21.13;;;5.20;99.90;;;;;;5047407;28;20393;-80
2021/01/06 07:55:26;;;;;;;39.70;20.17;;;5.20;99.90;;;;;;5066744;28;20493;-80
2021/01/06 07:58:07;;;;;;;41.55;21.20;;;5.20;99.90;;;;;;5053336;28;20021;-75
2021/01/06 08:00:38;;;;;;;41.65;21.48;;;5.30;99.90;;;;;;5048201;28;20028;-75
2021/01/06 08:03:43;;;;;;;43.47;20.88;;;5.30;99.90;;;;;;5075180;28;20016;-75
2021/01/06 08:06:08;;;;;;;40.17;19.92;;;5.30;99.90;;;;;;5052841;28;20529;-75
2021/01/06 08:08:46;;;;;;;41.97;20.65;;;5.20;99.90;;;;;;5052331;28;20108;-75
2021/01/06 08:11:15;;;;;;;43.78;21.38;;;5.20;99.90;;;;;;5053031;28;20025;-75
2021/01/06 08:13:47;;;;;;;43.53;21.50;;;5.20;99.90;;;;;;5066148;28;20035;-75
2021/01/06 08:16:41;;;;;;;44.43;21.77;;;5.20;99.90;;;;;;5054443;28;20773;-75
2021/01/06 08:19:27;;;;;;;37.38;19.08;;;5.20;99.90;;;;;;5045857;28;20299;-75
2021/01/06 08:22:17;;;;;;;42.53;21.08;;;5.20;99.90;;;;;;5053187;28;20023;-75
2021/01/06 08:24:53;;;;;;;40.50;21.58;;;5.20;99.90;;;;;;5042297;28;20074;-75
2021/01/06 08:27:36;;;;;;;39.35;21.42;;;5.30;99.90;;;;;;5045518;28;20088;-75
2021/01/06 08:30:30;;;;;;;41.40;21.13;;;5.20;99.90;;;;;;5046101;28;20120;-76
2021/01/06 08:33:11;;;;;;;41.53;20.30;;;5.20;99.90;;;;;;5053400;28;20063;-75
2021/01/06 08:35:43;;;;;;;38.65;21.10;;;5.30;99.90;;;;;;5052187;28;20047;-75
2021/01/06 08:38:32;;;;;;;40.20;18.97;;;5.30;99.90;;;;;;5055493;28;20021;-76
2021/01/06 08:41:18;;;;;;;41.85;22.00;;;5.30;99.90;;;;;;5053388;28;20159;-75
2021/01/06 08:43:45;;;;;;;38.15;20.40;;;5.30;99.90;;;;;;5048416;28;20024;-75
2021/01/06 08:46:27;;;;;;;38.25;19.95;;;5.30;99.90;;;;;;5055618;28;20071;-75
2021/01/06 08:48:53;;;;;;;39.38;20.67;;;5.30;99.90;;;;;;5058575;28;20043;-75
2021/01/06 08:51:33;;;;;;;43.53;21.40;;;5.30;99.90;;;;;;5056468;28;20029;-75
2021/01/06 08:53:59;;;;;;;42.78;23.05;;;5.30;99.90;;;;;;5044771;28;20040;-75
2021/01/06 08:56:27;;;;;;;37.45;21.00;;;5.30;99.90;;;;;;5054487;28;20016;-75
2021/01/06 08:58:57;;;;;;;37.97;21.27;;;5.30;99.90;;;;;;5045052;28;20053;-75
2021/01/06 09:01:36;;;;;;;44.58;21.70;;;5.30;99.90;;;;;;5051913;28;20661;-75
2021/01/06 09:04:08;;;;;;;37.63;20.67;;;5.30;99.90;;;;;;5048991;28;20021;-75
2021/01/06 09:06:45;;;;;;;37.20;20.92;;;5.30;99.90;;;;;;5050040;28;20370;-75
2021/01/06 09:09:35;;;;;;;45.28;20.77;;;5.30;99.90;;;;;;5046966;28;20115;-75
2021/01/06 09:12:02;;;;;;;35.40;20.05;;;5.20;99.90;;;;;;5048570;28;20033;-75
2021/01/06 09:14:37;;;;;;;35.50;19.52;;;5.20;99.90;;;;;;5048377;28;20385;-75
2021/01/06 09:17:13;;;;;;;39.58;19.80;;;5.30;99.90;;;;;;5049560;28;20040;-75
2021/01/06 09:19:51;;;;;;;33.15;18.50;;;5.30;99.90;;;;;;5048788;28;20092;-75
2021/01/06 09:22:17;;;;;;;39.78;18.02;;;5.40;99.90;;;;;;5042587;28;20087;-75
2021/01/06 09:24:44;;;;;;;33.10;18.27;;;5.40;99.90;;;;;;5052135;28;20021;-75
2021/01/06 09:27:39;;;;;;;33.22;18.40;;;5.30;99.90;;;;;;5043259;28;20091;-75
2021/01/06 09:30:20;;;;;;;28.27;17.45;;;5.30;99.90;;;;;;5044615;28;20024;-75
2021/01/06 09:32:47;;;;;;;32.65;17.30;;;5.30;99.90;;;;;;5050974;28;20168;-75
2021/01/06 09:35:20;;;;;;;32.25;16.83;;;5.30;99.90;;;;;;5046733;28;20025;-75
2021/01/06 09:38:05;;;;;;;28.13;17.23;;;5.30;99.90;;;;;;5045201;28;20352;-75
2021/01/06 09:40:33;;;;;;;29.05;17.33;;;5.30;99.90;;;;;;5046587;28;20104;-75
2021/01/06 09:43:16;;;;;;;29.05;15.98;;;5.30;99.90;;;;;;5048128;28;20029;-75
2021/01/06 09:45:42;;;;;;;25.63;14.73;;;5.30;99.90;;;;;;5045182;28;20113;-75
2021/01/06 09:48:11;;;;;;;23.60;14.05;;;5.20;99.90;;;;;;5047741;28;20057;-75
2021/01/06 09:50:43;;;;;;;27.02;14.52;;;5.30;99.90;;;;;;5045892;28;20021;-75
2021/01/06 09:53:14;;;;;;;27.23;14.75;;;5.30;99.90;;;;;;5048767;28;20527;-75
2021/01/06 09:55:44;;;;;;;24.77;14.68;;;5.30;99.90;;;;;;5044275;28;20086;-75
2021/01/06 09:58:28;;;;;;;23.13;14.07;;;5.40;99.90;;;;;;5048135;28;20025;-75
2021/01/06 10:01:01;;;;;;;25.15;14.30;;;5.30;99.90;;;;;;5050974;28;20029;-75
2021/01/06 10:03:30;;;;;;;25.50;14.30;;;5.40;99.90;;;;;;5052621;28;20039;-75
2021/01/06 10:06:08;;;;;;;23.08;14.73;;;5.30;99.90;;;;;;5050025;28;20025;-80
2021/01/06 10:08:46;;;;;;;25.92;15.57;;;5.30;99.90;;;;;;5050195;28;20491;-79
2021/01/06 10:11:49;;;;;;;24.48;14.65;;;5.30;99.90;;;;;;5076429;28;20086;-79
2021/01/06 10:14:58;;;;;;;23.42;13.27;;;5.30;99.90;;;;;;5045964;28;20060;-81
2021/01/06 10:17:31;;;;;;;22.35;13.55;;;5.30;99.90;;;;;;5049770;28;20037;-80
2021/01/06 10:20:20;;;;;;;21.42;13.50;;;5.30;99.90;;;;;;5035951;28;20455;-79
2021/01/06 10:22:57;;;;;;;23.92;13.88;;;5.30;99.90;;;;;;5045102;28;20052;-79
2021/01/06 10:25:35;;;;;;;23.58;12.82;;;5.40;99.90;;;;;;5045817;28;20014;-79
2021/01/06 10:28:22;;;;;;;26.45;15.02;;;5.40;99.90;;;;;;5051162;28;20042;-78
2021/01/06 10:31:15;;;;;;;22.85;12.93;;;5.30;99.90;;;;;;5049939;28;20029;-79
2021/01/06 10:34:05;;;;;;;20.23;13.02;;;5.30;99.90;;;;;;5048547;28;20136;-81
2021/01/06 10:37:05;;;;;;;22.50;12.02;;;5.40;99.90;;;;;;5064969;28;20029;-79
2021/01/06 10:39:51;;;;;;;18.80;11.70;;;5.30;99.90;;;;;;5049177;28;20036;-79
2021/01/06 10:42:17;;;;;;;19.85;11.40;;;5.40;99.90;;;;;;5050290;28;20021;-79
2021/01/06 10:45:08;;;;;;;20.85;11.55;;;5.40;99.90;;;;;;5046784;28;20538;-79
2021/01/06 10:47:40;;;;;;;21.25;12.52;;;5.50;99.90;;;;;;5050172;28;20028;-80
2021/01/06 10:50:26;;;;;;;20.30;11.93;;;5.40;99.90;;;;;;5049686;28;20029;-79
2021/01/06 10:53:00;;;;;;;21.73;13.10;;;5.40;99.90;;;;;;5043706;28;20481;-79
2021/01/06 10:55:47;;;;;;;18.60;11.07;;;5.30;99.90;;;;;;5043984;28;20029;-79
2021/01/06 10:58:23;;;;;;;20.30;11.73;;;5.40;99.90;;;;;;5048796;28;20029;-79
2021/01/06 11:01:08;;;;;;;20.90;11.95;;;5.40;99.90;;;;;;5052722;28;20075;-79
2021/01/06 11:04:14;;;;;;;20.05;12.00;;;5.40;99.90;;;;;;5045687;28;20052;-79
2021/01/06 11:07:08;;;;;;;19.55;11.38;;;5.40;99.90;;;;;;5061429;28;20063;-79
2021/01/06 11:10:01;;;;;;;18.55;11.38;;;5.40;99.90;;;;;;5048448;28;20381;-79
2021/01/06 11:12:47;;;;;;;18.55;11.90;;;5.40;99.90;;;;;;5047324;28;20078;-79
2021/01/06 11:15:51;;;;;;;20.85;12.05;;;5.50;99.90;;;;;;5049225;28;20473;-79
2021/01/06 11:18:21;;;;;;;19.75;12.30;;;5.50;99.90;;;;;;5031596;28;20029;-79
2021/01/06 11:21:15;;;;;;;22.33;11.70;;;5.50;99.90;;;;;;5053448;28;20021;-79
2021/01/06 11:23:57;;;;;;;21.00;12.15;;;5.50;99.90;;;;;;5046136;28;20155;-80
2021/01/06 11:26:40;;;;;;;22.73;12.05;;;5.50;99.90;;;;;;5045357;28;20037;-79
2021/01/06 11:29:29;;;;;;;20.65;11.40;;;5.50;99.90;;;;;;5053427;28;20067;-79
2021/01/06 11:32:01;;;;;;;21.65;12.93;;;5.50;99.90;;;;;;5045967;28;20070;-79
2021/01/06 11:34:36;;;;;;;23.70;13.63;;;5.60;99.90;;;;;;5046657;28;20104;-79
2021/01/06 11:37:25;;;;;;;21.95;13.20;;;5.60;99.90;;;;;;5043649;28;20041;-79
2021/01/06 11:39:51;;;;;;;23.40;13.73;;;5.60;99.90;;;;;;5053668;28;20025;-79
2021/01/06 11:42:20;;;;;;;24.95;13.43;;;5.60;99.90;;;;;;5046719;28;20428;-79
2021/01/06 11:45:12;;;;;;;25.55;13.35;;;5.70;99.90;;;;;;5051685;28;20115;-79
2021/01/06 11:48:02;;;;;;;20.55;13.43;;;5.70;99.90;;;;;;5046587;28;20036;-81
2021/01/06 11:50:42;;;;;;;25.33;13.73;;;5.70;99.90;;;;;;5043109;28;20029;-77
2021/01/06 11:53:27;;;;;;;21.05;12.98;;;5.70;99.90;;;;;;5046261;28;20508;-76
2021/01/06 11:56:15;;;;;;;22.38;13.02;;;5.70;99.90;;;;;;5062601;28;20032;-76
2021/01/06 11:58:54;;;;;;;25.48;14.75;;;5.80;99.90;;;;;;5048021;28;20037;-76
2021/01/06 12:01:35;;;;;;;20.13;12.45;;;5.70;99.90;;;;;;5045099;28;20100;-76
2021/01/06 12:04:20;;;;;;;23.30;12.55;;;5.70;99.90;;;;;;5050040;28;20087;-76
2021/01/06 12:06:49;;;;;;;23.20;13.40;;;5.80;99.90;;;;;;5043502;28;20022;-76
2021/01/06 12:09:38;;;;;;;18.88;12.25;;;5.70;99.90;;;;;;5044316;28;20035;-76
2021/01/06 12:12:32;;;;;;;21.23;13.23;;;5.70;99.90;;;;;;5045130;28;20021;-76
2021/01/06 12:15:28;;;;;;;21.58;12.05;;;5.70;99.90;;;;;;5046998;28;20430;-76
2021/01/06 12:17:59;;;;;;;22.67;12.57;;;5.70;99.90;;;;;;5055727;28;20044;-75
2021/01/06 12:20:31;;;;;;;18.17;11.00;;;5.70;99.90;;;;;;5043129;28;20362;-76
2021/01/06 12:23:15;;;;;;;19.15;12.18;;;5.70;99.90;;;;;;5042765;28;20476;-75
2021/01/06 12:25:48;;;;;;;21.90;12.90;;;5.70;99.90;;;;;;5037659;28;20377;-75
2021/01/06 12:28:22;;;;;;;19.08;10.88;;;5.70;99.90;;;;;;5046607;28;20385;-75
2021/01/06 12:31:03;;;;;;;17.55;10.52;;;5.70;99.90;;;;;;5048146;28;20481;-76
2021/01/06 12:33:46;;;;;;;18.60;11.50;;;5.70;99.90;;;;;;5051761;28;20029;-75
2021/01/06 12:36:29;;;;;;;22.65;11.63;;;5.80;99.90;;;;;;5049319;28;20077;-75
2021/01/06 12:39:15;;;;;;;19.80;11.77;;;5.70;99.90;;;;;;5048013;28;20108;-75
2021/01/06 12:41:57;;;;;;;21.23;11.82;;;5.70;99.90;;;;;;5047422;28;20033;-74
2021/01/06 12:44:28;;;;;;;20.00;11.87;;;5.70;99.90;;;;;;5045845;28;20027;-75
2021/01/06 12:47:07;;;;;;;20.48;11.77;;;5.70;99.90;;;;;;5049054;28;20040;-75
2021/01/06 12:49:55;;;;;;;20.80;12.48;;;5.70;99.90;;;;;;5039860;28;20039;-75
2021/01/06 12:52:36;;;;;;;18.80;11.57;;;5.70;99.90;;;;;;5066250;28;20025;-75
2021/01/06 12:55:20;;;;;;;19.98;12.32;;;5.50;99.90;;;;;;5047558;28;20040;-75
2021/01/06 12:57:51;;;;;;;17.67;11.27;;;5.50;99.90;;;;;;5050297;28;20048;-75
2021/01/06 13:00:34;;;;;;;20.45;11.63;;;5.60;99.90;;;;;;5047332;28;20095;-75
2021/01/06 13:03:07;;;;;;;20.50;11.93;;;5.70;99.90;;;;;;5046964;28;20029;-75
2021/01/06 13:05:33;;;;;;;22.15;13.10;;;5.70;99.90;;;;;;5047965;28;20028;-75
2021/01/06 13:08:01;;;;;;;22.83;13.05;;;5.80;99.90;;;;;;5048401;28;20462;-75
2021/01/06 13:10:36;;;;;;;26.70;12.98;;;5.90;99.90;;;;;;5046093;28;20021;-75
2021/01/06 13:13:21;;;;;;;19.05;12.48;;;5.90;99.90;;;;;;5044131;28;20515;-75
2021/01/06 13:16:03;;;;;;;18.70;12.65;;;5.90;99.90;;;;;;5046693;28;20496;-75
2021/01/06 13:18:58;;;;;;;17.75;11.77;;;5.90;99.90;;;;;;5042382;28;20025;-75
2021/01/06 13:21:32;;;;;;;17.58;10.80;;;5.90;99.90;;;;;;5043868;28;20060;-75
2021/01/06 13:23:58;;;;;;;19.73;12.13;;;5.90;99.90;;;;;;5046716;28;20025;-75
2021/01/06 13:26:37;;;;;;;17.13;11.27;;;6.00;99.90;;;;;;5048189;28;20092;-75
2021/01/06 13:29:10;;;;;;;19.23;10.65;;;6.00;99.90;;;;;;5048363;28;20025;-75